sensor_id;sensor_type;location;lat;lon;timestamp;P1;durP1;ratioP1;P2;durP2;ratioP2
50988;SDS011;37008;52.210;21.112;2023-07-20T00:01:44;4.75;;;2.70;;
50988;SDS011;37008;52.210;21.112;2023-07-20T00:04:10;6.25;;;3.25;;
50988;SDS011;37008;52.210;21.112;2023-07-20T00:06:36;5.53;;;2.53;;
50988;SDS011;37008;52.210;21.112;2023-07-20T00:09:06;4.30;;;2.97;;
50988;SDS011;37008;52.210;21.112;2023-07-20T00:11:35;5.28;;;3.17;;
50988;SDS011;37008;52.210;21.112;2023-07-20T00:14:03;5.07;;;3.08;;
50988;SDS011;37008;52.210;21.112;2023-07-20T00:16:29;5.95;;;2.92;;
50988;SDS011;37008;52.210;21.112;2023-07-20T00:18:55;5.40;;;3.08;;
50988;SDS011;37008;52.210;21.112;2023-07-20T00:21:21;4.45;;;2.67;;
50988;SDS011;37008;52.210;21.112;2023-07-20T00:23:46;4.90;;;2.60;;
50988;SDS011;37008;52.210;21.112;2023-07-20T00:26:12;3.97;;;2.45;;
50988;SDS011;37008;52.210;21.112;2023-07-20T00:28:38;8.13;;;3.08;;
50988;SDS011;37008;52.210;21.112;2023-07-20T00:31:04;5.43;;;3.00;;
50988;SDS011;37008;52.210;21.112;2023-07-20T00:33:29;7.47;;;3.20;;
50988;SDS011;37008;52.210;21.112;2023-07-20T00:35:55;6.32;;;2.90;;
50988;SDS011;37008;52.210;21.112;2023-07-20T00:38:21;7.28;;;2.83;;
50988;SDS011;37008;52.210;21.112;2023-07-20T00:40:47;4.35;;;2.75;;
50988;SDS011;37008;52.210;21.112;2023-07-20T00:43:14;5.88;;;2.58;;
50988;SDS011;37008;52.210;21.112;2023-07-20T00:45:40;6.03;;;2.88;;
50988;SDS011;37008;52.210;21.112;2023-07-20T00:48:06;5.35;;;2.92;;
50988;SDS011;37008;52.210;21.112;2023-07-20T00:50:32;6.43;;;3.50;;
50988;SDS011;37008;52.210;21.112;2023-07-20T00:52:59;9.02;;;3.00;;
50988;SDS011;37008;52.210;21.112;2023-07-20T00:55:25;10.73;;;3.03;;
50988;SDS011;37008;52.210;21.112;2023-07-20T00:57:53;7.75;;;2.90;;
50988;SDS011;37008;52.210;21.112;2023-07-20T01:00:19;6.88;;;2.85;;
50988;SDS011;37008;52.210;21.112;2023-07-20T01:02:45;6.38;;;2.90;;
50988;SDS011;37008;52.210;21.112;2023-07-20T01:05:10;8.18;;;2.80;;
50988;SDS011;37008;52.210;21.112;2023-07-20T01:07:46;5.18;;;2.97;;
50988;SDS011;37008;52.210;21.112;2023-07-20T01:13:14;5.18;;;3.53;;
50988;SDS011;37008;52.210;21.112;2023-07-20T01:15:42;4.43;;;2.45;;
50988;SDS011;37008;52.210;21.112;2023-07-20T01:18:15;4.43;;;2.65;;
50988;SDS011;37008;52.210;21.112;2023-07-20T01:20:40;10.77;;;3.28;;
50988;SDS011;37008;52.210;21.112;2023-07-20T01:26:36;4.82;;;3.05;;
50988;SDS011;37008;52.210;21.112;2023-07-20T01:34:28;8.13;;;3.10;;
50988;SDS011;37008;52.210;21.112;2023-07-20T01:36:55;8.88;;;3.20;;
50988;SDS011;37008;52.210;21.112;2023-07-20T01:39:22;6.47;;;3.40;;
50988;SDS011;37008;52.210;21.112;2023-07-20T01:41:48;5.95;;;2.80;;
50988;SDS011;37008;52.210;21.112;2023-07-20T01:44:14;6.10;;;3.00;;
50988;SDS011;37008;52.210;21.112;2023-07-20T01:46:40;5.15;;;3.08;;
50988;SDS011;37008;52.210;21.112;2023-07-20T01:49:05;4.80;;;2.97;;
50988;SDS011;37008;52.210;21.112;2023-07-20T01:51:31;7.55;;;3.00;;
50988;SDS011;37008;52.210;21.112;2023-07-20T01:53:56;6.32;;;3.00;;
50988;SDS011;37008;52.210;21.112;2023-07-20T01:56:22;7.25;;;3.25;;
50988;SDS011;37008;52.210;21.112;2023-07-20T01:58:48;6.05;;;3.17;;
50988;SDS011;37008;52.210;21.112;2023-07-20T02:01:13;6.65;;;3.58;;
50988;SDS011;37008;52.210;21.112;2023-07-20T02:03:39;7.60;;;3.38;;
50988;SDS011;37008;52.210;21.112;2023-07-20T02:06:04;4.88;;;3.03;;
50988;SDS011;37008;52.210;21.112;2023-07-20T02:08:30;7.72;;;3.28;;
50988;SDS011;37008;52.210;21.112;2023-07-20T02:10:55;9.27;;;3.10;;
50988;SDS011;37008;52.210;21.112;2023-07-20T02:13:21;5.80;;;3.00;;
50988;SDS011;37008;52.210;21.112;2023-07-20T02:15:47;6.88;;;3.38;;
50988;SDS011;37008;52.210;21.112;2023-07-20T02:18:14;7.50;;;3.33;;
50988;SDS011;37008;52.210;21.112;2023-07-20T02:20:40;6.00;;;3.00;;
50988;SDS011;37008;52.210;21.112;2023-07-20T02:23:06;8.25;;;3.55;;
50988;SDS011;37008;52.210;21.112;2023-07-20T02:25:31;5.43;;;3.38;;
50988;SDS011;37008;52.210;21.112;2023-07-20T02:27:57;6.32;;;3.38;;
50988;SDS011;37008;52.210;21.112;2023-07-20T02:30:23;7.32;;;3.35;;
50988;SDS011;37008;52.210;21.112;2023-07-20T02:32:49;5.82;;;3.72;;
50988;SDS011;37008;52.210;21.112;2023-07-20T02:35:15;8.50;;;3.72;;
50988;SDS011;37008;52.210;21.112;2023-07-20T02:37:41;5.35;;;3.63;;
50988;SDS011;37008;52.210;21.112;2023-07-20T02:40:06;5.63;;;3.40;;
50988;SDS011;37008;52.210;21.112;2023-07-20T02:42:32;8.18;;;3.30;;
50988;SDS011;37008;52.210;21.112;2023-07-20T02:44:58;7.68;;;3.75;;
50988;SDS011;37008;52.210;21.112;2023-07-20T02:47:24;4.97;;;3.10;;
50988;SDS011;37008;52.210;21.112;2023-07-20T02:49:49;6.25;;;3.90;;
50988;SDS011;37008;52.210;21.112;2023-07-20T02:52:15;9.43;;;3.28;;
50988;SDS011;37008;52.210;21.112;2023-07-20T02:54:40;5.88;;;3.38;;
50988;SDS011;37008;52.210;21.112;2023-07-20T02:57:06;8.25;;;3.55;;
50988;SDS011;37008;52.210;21.112;2023-07-20T02:59:31;5.00;;;3.13;;
50988;SDS011;37008;52.210;21.112;2023-07-20T03:01:57;5.57;;;3.30;;
50988;SDS011;37008;52.210;21.112;2023-07-20T03:04:25;8.95;;;3.47;;
50988;SDS011;37008;52.210;21.112;2023-07-20T03:06:51;6.88;;;3.20;;
50988;SDS011;37008;52.210;21.112;2023-07-20T03:09:17;5.18;;;4.03;;
50988;SDS011;37008;52.210;21.112;2023-07-20T03:11:42;6.68;;;3.47;;
50988;SDS011;37008;52.210;21.112;2023-07-20T03:14:08;7.43;;;3.33;;
50988;SDS011;37008;52.210;21.112;2023-07-20T03:16:35;6.47;;;4.00;;
50988;SDS011;37008;52.210;21.112;2023-07-20T03:19:01;4.90;;;3.53;;
50988;SDS011;37008;52.210;21.112;2023-07-20T03:21:27;7.45;;;3.65;;
50988;SDS011;37008;52.210;21.112;2023-07-20T03:23:53;5.20;;;3.30;;
50988;SDS011;37008;52.210;21.112;2023-07-20T03:26:19;8.50;;;3.50;;
50988;SDS011;37008;52.210;21.112;2023-07-20T03:28:45;11.18;;;3.78;;
50988;SDS011;37008;52.210;21.112;2023-07-20T03:31:10;7.28;;;3.53;;
50988;SDS011;37008;52.210;21.112;2023-07-20T03:33:36;6.38;;;3.40;;
50988;SDS011;37008;52.210;21.112;2023-07-20T03:36:01;10.02;;;3.47;;
50988;SDS011;37008;52.210;21.112;2023-07-20T03:38:27;6.18;;;3.08;;
50988;SDS011;37008;52.210;21.112;2023-07-20T03:43:19;5.40;;;3.58;;
50988;SDS011;37008;52.210;21.112;2023-07-20T03:45:45;6.18;;;3.85;;
50988;SDS011;37008;52.210;21.112;2023-07-20T03:48:13;11.20;;;3.38;;
50988;SDS011;37008;52.210;21.112;2023-07-20T03:50:40;9.25;;;3.97;;
50988;SDS011;37008;52.210;21.112;2023-07-20T03:53:05;9.98;;;3.80;;
50988;SDS011;37008;52.210;21.112;2023-07-20T03:55:31;6.93;;;3.30;;
50988;SDS011;37008;52.210;21.112;2023-07-20T03:57:56;6.72;;;3.30;;
50988;SDS011;37008;52.210;21.112;2023-07-20T04:00:22;6.85;;;3.25;;
50988;SDS011;37008;52.210;21.112;2023-07-20T04:02:48;7.63;;;2.88;;
50988;SDS011;37008;52.210;21.112;2023-07-20T04:05:14;7.22;;;3.00;;
50988;SDS011;37008;52.210;21.112;2023-07-20T04:07:39;5.13;;;3.17;;
50988;SDS011;37008;52.210;21.112;2023-07-20T04:10:05;5.43;;;3.30;;
50988;SDS011;37008;52.210;21.112;2023-07-20T04:12:31;6.55;;;3.33;;
50988;SDS011;37008;52.210;21.112;2023-07-20T04:14:56;6.40;;;3.33;;
50988;SDS011;37008;52.210;21.112;2023-07-20T04:17:22;5.45;;;3.60;;
50988;SDS011;37008;52.210;21.112;2023-07-20T04:19:47;6.65;;;3.53;;
50988;SDS011;37008;52.210;21.112;2023-07-20T04:22:13;7.53;;;3.40;;
50988;SDS011;37008;52.210;21.112;2023-07-20T04:24:41;5.95;;;4.00;;
50988;SDS011;37008;52.210;21.112;2023-07-20T04:27:07;8.25;;;4.15;;
50988;SDS011;37008;52.210;21.112;2023-07-20T04:29:32;6.78;;;4.57;;
50988;SDS011;37008;52.210;21.112;2023-07-20T04:31:58;6.90;;;4.43;;
50988;SDS011;37008;52.210;21.112;2023-07-20T04:34:24;7.63;;;4.57;;
50988;SDS011;37008;52.210;21.112;2023-07-20T04:36:49;8.52;;;4.38;;
50988;SDS011;37008;52.210;21.112;2023-07-20T04:39:15;7.15;;;4.63;;
50988;SDS011;37008;52.210;21.112;2023-07-20T04:41:40;9.20;;;4.53;;
50988;SDS011;37008;52.210;21.112;2023-07-20T04:44:06;7.68;;;4.82;;
50988;SDS011;37008;52.210;21.112;2023-07-20T04:46:31;8.25;;;4.60;;
50988;SDS011;37008;52.210;21.112;2023-07-20T04:48:57;8.55;;;5.22;;
50988;SDS011;37008;52.210;21.112;2023-07-20T04:51:22;9.05;;;5.45;;
50988;SDS011;37008;52.210;21.112;2023-07-20T04:53:49;8.50;;;5.25;;
50988;SDS011;37008;52.210;21.112;2023-07-20T04:56:14;9.65;;;4.72;;
50988;SDS011;37008;52.210;21.112;2023-07-20T04:58:40;8.00;;;5.25;;
50988;SDS011;37008;52.210;21.112;2023-07-20T05:01:06;8.93;;;4.97;;
50988;SDS011;37008;52.210;21.112;2023-07-20T05:03:32;9.30;;;4.82;;
50988;SDS011;37008;52.210;21.112;2023-07-20T05:05:58;11.55;;;5.32;;
50988;SDS011;37008;52.210;21.112;2023-07-20T05:08:23;10.40;;;5.00;;
50988;SDS011;37008;52.210;21.112;2023-07-20T05:10:49;11.10;;;5.15;;
50988;SDS011;37008;52.210;21.112;2023-07-20T05:13:15;13.80;;;5.88;;
50988;SDS011;37008;52.210;21.112;2023-07-20T05:15:40;9.27;;;5.18;;
50988;SDS011;37008;52.210;21.112;2023-07-20T05:18:06;8.35;;;5.68;;
50988;SDS011;37008;52.210;21.112;2023-07-20T05:20:31;8.85;;;4.93;;
50988;SDS011;37008;52.210;21.112;2023-07-20T05:22:58;7.70;;;4.97;;
50988;SDS011;37008;52.210;21.112;2023-07-20T05:25:24;9.45;;;4.88;;
50988;SDS011;37008;52.210;21.112;2023-07-20T05:27:51;9.15;;;5.15;;
50988;SDS011;37008;52.210;21.112;2023-07-20T05:30:17;7.88;;;5.07;;
50988;SDS011;37008;52.210;21.112;2023-07-20T05:32:43;7.88;;;5.25;;
50988;SDS011;37008;52.210;21.112;2023-07-20T05:35:12;10.68;;;5.05;;
50988;SDS011;37008;52.210;21.112;2023-07-20T05:37:39;7.70;;;5.30;;
50988;SDS011;37008;52.210;21.112;2023-07-20T05:40:05;8.93;;;5.75;;
50988;SDS011;37008;52.210;21.112;2023-07-20T05:42:32;10.07;;;5.10;;
50988;SDS011;37008;52.210;21.112;2023-07-20T05:44:58;8.65;;;4.80;;
50988;SDS011;37008;52.210;21.112;2023-07-20T05:47:23;10.20;;;4.97;;
50988;SDS011;37008;52.210;21.112;2023-07-20T05:49:49;9.45;;;5.38;;
50988;SDS011;37008;52.210;21.112;2023-07-20T05:52:15;7.50;;;4.97;;
50988;SDS011;37008;52.210;21.112;2023-07-20T05:54:41;9.57;;;5.32;;
50988;SDS011;37008;52.210;21.112;2023-07-20T05:57:06;9.25;;;5.15;;
50988;SDS011;37008;52.210;21.112;2023-07-20T05:59:32;6.82;;;5.13;;
50988;SDS011;37008;52.210;21.112;2023-07-20T06:01:58;8.35;;;5.07;;
50988;SDS011;37008;52.210;21.112;2023-07-20T06:04:24;17.17;;;4.95;;
50988;SDS011;37008;52.210;21.112;2023-07-20T06:06:49;8.68;;;5.47;;
50988;SDS011;37008;52.210;21.112;2023-07-20T06:09:15;8.77;;;5.35;;
50988;SDS011;37008;52.210;21.112;2023-07-20T06:11:41;11.52;;;5.03;;
50988;SDS011;37008;52.210;21.112;2023-07-20T06:14:07;10.57;;;4.82;;
50988;SDS011;37008;52.210;21.112;2023-07-20T06:16:33;8.40;;;5.13;;
50988;SDS011;37008;52.210;21.112;2023-07-20T06:19:00;7.82;;;4.75;;
50988;SDS011;37008;52.210;21.112;2023-07-20T06:21:25;9.82;;;4.75;;
50988;SDS011;37008;52.210;21.112;2023-07-20T06:23:51;8.90;;;4.57;;
50988;SDS011;37008;52.210;21.112;2023-07-20T06:26:17;8.52;;;4.70;;
50988;SDS011;37008;52.210;21.112;2023-07-20T06:28:42;8.55;;;5.18;;
50988;SDS011;37008;52.210;21.112;2023-07-20T06:31:08;10.13;;;5.90;;
50988;SDS011;37008;52.210;21.112;2023-07-20T06:33:33;10.98;;;6.47;;
50988;SDS011;37008;52.210;21.112;2023-07-20T06:36:02;12.07;;;6.00;;
50988;SDS011;37008;52.210;21.112;2023-07-20T06:38:28;11.65;;;6.75;;
50988;SDS011;37008;52.210;21.112;2023-07-20T06:40:54;8.05;;;6.28;;
50988;SDS011;37008;52.210;21.112;2023-07-20T06:43:20;9.68;;;5.80;;
50988;SDS011;37008;52.210;21.112;2023-07-20T06:45:50;10.40;;;6.22;;
50988;SDS011;37008;52.210;21.112;2023-07-20T06:48:19;15.63;;;6.28;;
50988;SDS011;37008;52.210;21.112;2023-07-20T06:50:46;12.45;;;6.22;;
50988;SDS011;37008;52.210;21.112;2023-07-20T06:53:11;15.40;;;6.43;;
50988;SDS011;37008;52.210;21.112;2023-07-20T06:55:37;11.18;;;5.68;;
50988;SDS011;37008;52.210;21.112;2023-07-20T06:58:03;6.75;;;5.18;;
50988;SDS011;37008;52.210;21.112;2023-07-20T07:00:28;11.18;;;5.53;;
50988;SDS011;37008;52.210;21.112;2023-07-20T07:02:54;8.95;;;5.40;;
50988;SDS011;37008;52.210;21.112;2023-07-20T07:05:19;7.03;;;5.50;;
50988;SDS011;37008;52.210;21.112;2023-07-20T07:07:45;7.15;;;5.10;;
50988;SDS011;37008;52.210;21.112;2023-07-20T07:10:11;9.27;;;5.50;;
50988;SDS011;37008;52.210;21.112;2023-07-20T07:12:36;10.15;;;5.45;;
50988;SDS011;37008;52.210;21.112;2023-07-20T07:15:02;9.32;;;5.40;;
50988;SDS011;37008;52.210;21.112;2023-07-20T07:17:31;12.40;;;6.07;;
50988;SDS011;37008;52.210;21.112;2023-07-20T07:19:57;10.88;;;5.30;;
50988;SDS011;37008;52.210;21.112;2023-07-20T07:22:23;10.50;;;5.43;;
50988;SDS011;37008;52.210;21.112;2023-07-20T07:24:49;10.25;;;5.35;;
50988;SDS011;37008;52.210;21.112;2023-07-20T07:27:14;11.15;;;5.30;;
50988;SDS011;37008;52.210;21.112;2023-07-20T07:29:43;11.65;;;5.47;;
50988;SDS011;37008;52.210;21.112;2023-07-20T07:32:11;9.38;;;5.28;;
50988;SDS011;37008;52.210;21.112;2023-07-20T07:34:38;9.57;;;5.30;;
50988;SDS011;37008;52.210;21.112;2023-07-20T07:37:04;8.75;;;4.90;;
50988;SDS011;37008;52.210;21.112;2023-07-20T07:39:30;9.27;;;4.68;;
50988;SDS011;37008;52.210;21.112;2023-07-20T07:41:56;7.97;;;4.88;;
50988;SDS011;37008;52.210;21.112;2023-07-20T07:44:22;12.15;;;4.80;;
50988;SDS011;37008;52.210;21.112;2023-07-20T07:46:48;8.05;;;4.60;;
50988;SDS011;37008;52.210;21.112;2023-07-20T07:49:14;8.40;;;4.90;;
50988;SDS011;37008;52.210;21.112;2023-07-20T07:51:40;8.68;;;4.55;;
50988;SDS011;37008;52.210;21.112;2023-07-20T07:54:05;7.20;;;4.78;;
50988;SDS011;37008;52.210;21.112;2023-07-20T07:56:31;8.45;;;5.30;;
50988;SDS011;37008;52.210;21.112;2023-07-20T07:58:57;6.70;;;4.90;;
50988;SDS011;37008;52.210;21.112;2023-07-20T08:01:22;10.75;;;4.90;;
50988;SDS011;37008;52.210;21.112;2023-07-20T08:03:48;11.05;;;4.88;;
50988;SDS011;37008;52.210;21.112;2023-07-20T08:06:14;10.45;;;5.13;;
50988;SDS011;37008;52.210;21.112;2023-07-20T08:08:40;8.93;;;4.97;;
50988;SDS011;37008;52.210;21.112;2023-07-20T08:11:05;7.95;;;4.72;;
50988;SDS011;37008;52.210;21.112;2023-07-20T08:13:31;7.50;;;4.80;;
50988;SDS011;37008;52.210;21.112;2023-07-20T08:15:57;11.30;;;5.40;;
50988;SDS011;37008;52.210;21.112;2023-07-20T08:18:23;9.60;;;4.65;;
50988;SDS011;37008;52.210;21.112;2023-07-20T08:20:49;9.27;;;4.60;;
50988;SDS011;37008;52.210;21.112;2023-07-20T08:23:15;7.13;;;5.13;;
50988;SDS011;37008;52.210;21.112;2023-07-20T08:25:41;7.63;;;5.15;;
50988;SDS011;37008;52.210;21.112;2023-07-20T08:28:15;7.05;;;4.63;;
50988;SDS011;37008;52.210;21.112;2023-07-20T08:30:42;8.73;;;5.20;;
50988;SDS011;37008;52.210;21.112;2023-07-20T08:33:09;8.32;;;5.03;;
50988;SDS011;37008;52.210;21.112;2023-07-20T08:35:36;10.18;;;6.55;;
50988;SDS011;37008;52.210;21.112;2023-07-20T08:38:01;9.65;;;6.82;;
50988;SDS011;37008;52.210;21.112;2023-07-20T08:40:31;11.05;;;6.80;;
50988;SDS011;37008;52.210;21.112;2023-07-20T08:42:58;7.85;;;5.30;;
50988;SDS011;37008;52.210;21.112;2023-07-20T08:45:25;9.25;;;5.97;;
50988;SDS011;37008;52.210;21.112;2023-07-20T08:47:54;10.98;;;5.70;;
50988;SDS011;37008;52.210;21.112;2023-07-20T08:50:22;10.20;;;6.13;;
50988;SDS011;37008;52.210;21.112;2023-07-20T08:52:50;7.75;;;5.80;;
50988;SDS011;37008;52.210;21.112;2023-07-20T08:55:18;11.63;;;6.03;;
50988;SDS011;37008;52.210;21.112;2023-07-20T08:57:45;10.30;;;6.05;;
50988;SDS011;37008;52.210;21.112;2023-07-20T09:00:13;8.60;;;5.55;;
50988;SDS011;37008;52.210;21.112;2023-07-20T09:02:42;9.50;;;6.15;;
50988;SDS011;37008;52.210;21.112;2023-07-20T09:05:10;9.18;;;5.85;;
50988;SDS011;37008;52.210;21.112;2023-07-20T09:07:37;8.68;;;6.05;;
50988;SDS011;37008;52.210;21.112;2023-07-20T09:10:04;12.32;;;6.22;;
50988;SDS011;37008;52.210;21.112;2023-07-20T09:12:31;9.75;;;6.00;;
50988;SDS011;37008;52.210;21.112;2023-07-20T09:15:00;9.82;;;6.80;;
50988;SDS011;37008;52.210;21.112;2023-07-20T09:17:26;8.23;;;6.20;;
50988;SDS011;37008;52.210;21.112;2023-07-20T09:19:52;6.72;;;4.22;;
50988;SDS011;37008;52.210;21.112;2023-07-20T09:22:17;8.93;;;4.55;;
50988;SDS011;37008;52.210;21.112;2023-07-20T09:24:44;13.50;;;5.13;;
50988;SDS011;37008;52.210;21.112;2023-07-20T09:27:10;8.27;;;4.78;;
50988;SDS011;37008;52.210;21.112;2023-07-20T09:29:49;9.32;;;5.15;;
50988;SDS011;37008;52.210;21.112;2023-07-20T09:32:19;8.48;;;4.85;;
50988;SDS011;37008;52.210;21.112;2023-07-20T09:34:45;5.78;;;4.45;;
50988;SDS011;37008;52.210;21.112;2023-07-20T09:37:11;10.48;;;5.10;;
50988;SDS011;37008;52.210;21.112;2023-07-20T09:39:44;6.00;;;4.20;;
50988;SDS011;37008;52.210;21.112;2023-07-20T09:42:13;6.35;;;3.85;;
50988;SDS011;37008;52.210;21.112;2023-07-20T09:44:39;9.05;;;4.65;;
50988;SDS011;37008;52.210;21.112;2023-07-20T09:47:05;5.93;;;4.00;;
50988;SDS011;37008;52.210;21.112;2023-07-20T09:49:31;7.25;;;4.05;;
50988;SDS011;37008;52.210;21.112;2023-07-20T09:51:58;7.13;;;3.55;;
50988;SDS011;37008;52.210;21.112;2023-07-20T09:54:26;7.35;;;3.55;;
50988;SDS011;37008;52.210;21.112;2023-07-20T09:56:53;5.65;;;3.20;;
50988;SDS011;37008;52.210;21.112;2023-07-20T09:59:20;5.90;;;3.42;;
50988;SDS011;37008;52.210;21.112;2023-07-20T10:01:45;5.53;;;3.22;;
50988;SDS011;37008;52.210;21.112;2023-07-20T10:04:12;8.63;;;4.00;;
50988;SDS011;37008;52.210;21.112;2023-07-20T10:06:42;6.07;;;3.20;;
50988;SDS011;37008;52.210;21.112;2023-07-20T10:09:12;4.38;;;3.00;;
50988;SDS011;37008;52.210;21.112;2023-07-20T10:11:41;7.15;;;3.17;;
50988;SDS011;37008;52.210;21.112;2023-07-20T10:14:11;9.70;;;3.33;;
50988;SDS011;37008;52.210;21.112;2023-07-20T10:16:43;5.90;;;3.00;;
50988;SDS011;37008;52.210;21.112;2023-07-20T10:19:23;6.13;;;3.10;;
50988;SDS011;37008;52.210;21.112;2023-07-20T10:22:03;6.95;;;3.53;;
50988;SDS011;37008;52.210;21.112;2023-07-20T10:24:45;5.65;;;2.80;;
50988;SDS011;37008;52.210;21.112;2023-07-20T10:27:12;4.68;;;2.78;;
50988;SDS011;37008;52.210;21.112;2023-07-20T10:29:39;3.80;;;2.70;;
50988;SDS011;37008;52.210;21.112;2023-07-20T10:32:06;5.63;;;2.67;;
50988;SDS011;37008;52.210;21.112;2023-07-20T10:34:33;7.88;;;2.78;;
50988;SDS011;37008;52.210;21.112;2023-07-20T10:36:59;5.57;;;2.25;;
50988;SDS011;37008;52.210;21.112;2023-07-20T10:39:25;6.82;;;2.00;;
50988;SDS011;37008;52.210;21.112;2023-07-20T10:42:08;4.72;;;2.08;;
50988;SDS011;37008;52.210;21.112;2023-07-20T10:44:38;5.53;;;2.50;;
50988;SDS011;37008;52.210;21.112;2023-07-20T10:47:11;9.45;;;2.53;;
50988;SDS011;37008;52.210;21.112;2023-07-20T10:49:57;4.90;;;2.20;;
50988;SDS011;37008;52.210;21.112;2023-07-20T10:52:24;3.45;;;2.20;;
50988;SDS011;37008;52.210;21.112;2023-07-20T10:54:50;4.75;;;2.28;;
50988;SDS011;37008;52.210;21.112;2023-07-20T10:57:22;7.50;;;2.42;;
50988;SDS011;37008;52.210;21.112;2023-07-20T10:59:49;4.85;;;2.55;;
50988;SDS011;37008;52.210;21.112;2023-07-20T11:02:17;4.05;;;2.38;;
50988;SDS011;37008;52.210;21.112;2023-07-20T11:04:45;4.07;;;2.55;;
50988;SDS011;37008;52.210;21.112;2023-07-20T11:07:16;3.30;;;2.30;;
50988;SDS011;37008;52.210;21.112;2023-07-20T11:09:42;8.15;;;2.50;;
50988;SDS011;37008;52.210;21.112;2023-07-20T11:14:52;5.32;;;2.50;;
50988;SDS011;37008;52.210;21.112;2023-07-20T11:17:19;3.20;;;2.30;;
50988;SDS011;37008;52.210;21.112;2023-07-20T11:19:55;4.65;;;2.60;;
50988;SDS011;37008;52.210;21.112;2023-07-20T11:22:22;2.67;;;2.00;;
50988;SDS011;37008;52.210;21.112;2023-07-20T11:24:48;6.20;;;2.60;;
50988;SDS011;37008;52.210;21.112;2023-07-20T11:27:14;4.32;;;2.45;;
50988;SDS011;37008;52.210;21.112;2023-07-20T11:29:40;3.80;;;2.13;;
50988;SDS011;37008;52.210;21.112;2023-07-20T11:32:06;4.07;;;2.40;;
50988;SDS011;37008;52.210;21.112;2023-07-20T11:34:33;5.07;;;2.65;;
50988;SDS011;37008;52.210;21.112;2023-07-20T11:37:00;5.57;;;2.65;;
50988;SDS011;37008;52.210;21.112;2023-07-20T11:39:26;4.13;;;2.03;;
50988;SDS011;37008;52.210;21.112;2023-07-20T11:41:55;4.70;;;2.30;;
50988;SDS011;37008;52.210;21.112;2023-07-20T11:44:25;5.25;;;2.13;;
50988;SDS011;37008;52.210;21.112;2023-07-20T11:47:02;3.67;;;1.90;;
50988;SDS011;37008;52.210;21.112;2023-07-20T11:49:41;4.53;;;2.17;;
50988;SDS011;37008;52.210;21.112;2023-07-20T11:52:15;3.75;;;2.45;;
50988;SDS011;37008;52.210;21.112;2023-07-20T11:54:42;6.47;;;2.03;;
50988;SDS011;37008;52.210;21.112;2023-07-20T11:57:15;4.72;;;2.10;;
50988;SDS011;37008;52.210;21.112;2023-07-20T12:00:03;4.57;;;1.88;;
50988;SDS011;37008;52.210;21.112;2023-07-20T12:02:36;2.85;;;1.80;;
50988;SDS011;37008;52.210;21.112;2023-07-20T12:05:04;4.50;;;1.70;;
50988;SDS011;37008;52.210;21.112;2023-07-20T12:07:34;3.15;;;1.63;;
50988;SDS011;37008;52.210;21.112;2023-07-20T12:12:40;4.75;;;1.98;;
50988;SDS011;37008;52.210;21.112;2023-07-20T12:17:52;3.35;;;1.65;;
50988;SDS011;37008;52.210;21.112;2023-07-20T12:20:29;2.83;;;1.58;;
50988;SDS011;37008;52.210;21.112;2023-07-20T12:23:08;2.80;;;1.80;;
50988;SDS011;37008;52.210;21.112;2023-07-20T12:25:42;2.65;;;1.48;;
50988;SDS011;37008;52.210;21.112;2023-07-20T12:28:09;4.75;;;1.48;;
50988;SDS011;37008;52.210;21.112;2023-07-20T12:30:39;3.95;;;1.83;;
50988;SDS011;37008;52.210;21.112;2023-07-20T12:33:06;2.95;;;1.70;;
50988;SDS011;37008;52.210;21.112;2023-07-20T12:35:32;2.35;;;1.83;;
50988;SDS011;37008;52.210;21.112;2023-07-20T12:37:58;3.38;;;1.80;;
50988;SDS011;37008;52.210;21.112;2023-07-20T12:40:24;5.15;;;2.13;;
50988;SDS011;37008;52.210;21.112;2023-07-20T12:42:50;3.70;;;1.80;;
50988;SDS011;37008;52.210;21.112;2023-07-20T12:45:15;6.22;;;1.80;;
50988;SDS011;37008;52.210;21.112;2023-07-20T12:47:41;2.03;;;1.50;;
50988;SDS011;37008;52.210;21.112;2023-07-20T12:50:08;4.50;;;1.77;;
50988;SDS011;37008;52.210;21.112;2023-07-20T12:52:38;3.30;;;2.00;;
50988;SDS011;37008;52.210;21.112;2023-07-20T12:55:05;2.30;;;1.65;;
50988;SDS011;37008;52.210;21.112;2023-07-20T12:57:33;3.10;;;1.73;;
50988;SDS011;37008;52.210;21.112;2023-07-20T13:00:00;4.60;;;1.90;;
50988;SDS011;37008;52.210;21.112;2023-07-20T13:02:30;2.60;;;1.60;;
50988;SDS011;37008;52.210;21.112;2023-07-20T13:04:57;4.18;;;1.80;;
50988;SDS011;37008;52.210;21.112;2023-07-20T13:07:30;4.15;;;1.80;;
50988;SDS011;37008;52.210;21.112;2023-07-20T13:09:57;3.92;;;1.55;;
50988;SDS011;37008;52.210;21.112;2023-07-20T13:12:26;2.42;;;1.65;;
50988;SDS011;37008;52.210;21.112;2023-07-20T13:14:53;3.63;;;1.40;;
50988;SDS011;37008;52.210;21.112;2023-07-20T13:17:19;3.78;;;1.42;;
50988;SDS011;37008;52.210;21.112;2023-07-20T13:19:44;3.42;;;1.83;;
50988;SDS011;37008;52.210;21.112;2023-07-20T13:22:10;5.32;;;1.75;;
50988;SDS011;37008;52.210;21.112;2023-07-20T13:24:36;5.18;;;1.70;;
50988;SDS011;37008;52.210;21.112;2023-07-20T13:27:02;4.05;;;1.55;;
50988;SDS011;37008;52.210;21.112;2023-07-20T13:29:27;4.70;;;1.85;;
50988;SDS011;37008;52.210;21.112;2023-07-20T13:31:53;4.82;;;1.67;;
50988;SDS011;37008;52.210;21.112;2023-07-20T13:34:19;2.95;;;1.52;;
50988;SDS011;37008;52.210;21.112;2023-07-20T13:36:44;4.32;;;1.67;;
50988;SDS011;37008;52.210;21.112;2023-07-20T13:39:10;4.65;;;1.80;;
50988;SDS011;37008;52.210;21.112;2023-07-20T13:41:36;4.03;;;1.10;;
50988;SDS011;37008;52.210;21.112;2023-07-20T13:44:01;2.50;;;1.40;;
50988;SDS011;37008;52.210;21.112;2023-07-20T13:46:27;4.63;;;1.73;;
50988;SDS011;37008;52.210;21.112;2023-07-20T13:48:52;2.85;;;1.75;;
50988;SDS011;37008;52.210;21.112;2023-07-20T13:51:18;2.28;;;1.52;;
50988;SDS011;37008;52.210;21.112;2023-07-20T13:53:45;4.05;;;1.90;;
50988;SDS011;37008;52.210;21.112;2023-07-20T13:56:12;4.15;;;1.80;;
50988;SDS011;37008;52.210;21.112;2023-07-20T13:58:38;2.80;;;1.60;;
50988;SDS011;37008;52.210;21.112;2023-07-20T14:01:03;2.42;;;1.90;;
50988;SDS011;37008;52.210;21.112;2023-07-20T14:03:29;3.30;;;1.80;;
50988;SDS011;37008;52.210;21.112;2023-07-20T14:05:55;3.55;;;1.98;;
50988;SDS011;37008;52.210;21.112;2023-07-20T14:08:21;8.25;;;1.90;;
50988;SDS011;37008;52.210;21.112;2023-07-20T14:10:47;3.15;;;2.08;;
50988;SDS011;37008;52.210;21.112;2023-07-20T14:13:13;4.50;;;2.00;;
50988;SDS011;37008;52.210;21.112;2023-07-20T14:15:39;3.80;;;2.00;;
50988;SDS011;37008;52.210;21.112;2023-07-20T14:18:05;3.30;;;1.98;;
50988;SDS011;37008;52.210;21.112;2023-07-20T14:20:30;3.60;;;2.10;;
50988;SDS011;37008;52.210;21.112;2023-07-20T14:22:56;4.22;;;2.30;;
50988;SDS011;37008;52.210;21.112;2023-07-20T14:25:22;2.85;;;1.60;;
50988;SDS011;37008;52.210;21.112;2023-07-20T14:27:47;4.90;;;2.13;;
50988;SDS011;37008;52.210;21.112;2023-07-20T14:30:13;5.68;;;1.90;;
50988;SDS011;37008;52.210;21.112;2023-07-20T14:32:40;3.00;;;1.63;;
50988;SDS011;37008;52.210;21.112;2023-07-20T14:35:06;2.75;;;1.80;;
50988;SDS011;37008;52.210;21.112;2023-07-20T14:37:32;3.88;;;2.00;;
50988;SDS011;37008;52.210;21.112;2023-07-20T14:39:59;5.75;;;1.73;;
50988;SDS011;37008;52.210;21.112;2023-07-20T14:42:24;4.85;;;1.63;;
50988;SDS011;37008;52.210;21.112;2023-07-20T14:44:50;4.97;;;1.83;;
50988;SDS011;37008;52.210;21.112;2023-07-20T14:47:16;2.20;;;1.42;;
50988;SDS011;37008;52.210;21.112;2023-07-20T14:49:42;2.42;;;1.55;;
50988;SDS011;37008;52.210;21.112;2023-07-20T14:52:09;6.47;;;1.58;;
50988;SDS011;37008;52.210;21.112;2023-07-20T14:54:34;1.95;;;1.25;;